sensor_id;sensor_type;location;lat;lon;timestamp;temperature;humidity
35240;DHT22;21376;50.954;4.716;2023-02-08T00:01:22;-1.40;99.90
35240;DHT22;21376;50.954;4.716;2023-02-08T00:03:49;-1.70;99.90
35240;DHT22;21376;50.954;4.716;2023-02-08T00:06:18;-1.60;99.90
35240;DHT22;21376;50.954;4.716;2023-02-08T00:46:08;-2.40;99.90
35240;DHT22;21376;50.954;4.716;2023-02-08T00:48:50;-2.60;99.90
35240;DHT22;21376;50.954;4.716;2023-02-08T00:51:19;-2.50;99.90
35240;DHT22;21376;50.954;4.716;2023-02-08T00:53:48;-2.70;99.90
35240;DHT22;21376;50.954;4.716;2023-02-08T00:56:17;-2.60;99.90
35240;DHT22;21376;50.954;4.716;2023-02-08T00:58:46;-2.60;99.90
35240;DHT22;21376;50.954;4.716;2023-02-08T01:01:15;-2.30;99.90
35240;DHT22;21376;50.954;4.716;2023-02-08T01:03:41;-2.70;99.90
35240;DHT22;21376;50.954;4.716;2023-02-08T01:06:10;-2.60;99.90
35240;DHT22;21376;50.954;4.716;2023-02-08T01:08:37;-2.60;99.90
35240;DHT22;21376;50.954;4.716;2023-02-08T01:11:12;-2.60;99.90
35240;DHT22;21376;50.954;4.716;2023-02-08T01:13:41;-2.50;99.90
35240;DHT22;21376;50.954;4.716;2023-02-08T01:16:11;-2.40;99.90
35240;DHT22;21376;50.954;4.716;2023-02-08T01:18:41;-2.50;99.90
35240;DHT22;21376;50.954;4.716;2023-02-08T01:21:09;-2.40;99.90
35240;DHT22;21376;50.954;4.716;2023-02-08T01:23:38;-2.60;99.90
35240;DHT22;21376;50.954;4.716;2023-02-08T01:26:06;-2.60;99.90
35240;DHT22;21376;50.954;4.716;2023-02-08T01:28:35;-2.50;99.90
35240;DHT22;21376;50.954;4.716;2023-02-08T01:31:36;-2.70;99.90
35240;DHT22;21376;50.954;4.716;2023-02-08T01:34:06;-2.60;99.90
35240;DHT22;21376;50.954;4.716;2023-02-08T01:36:39;-2.50;99.90
35240;DHT22;21376;50.954;4.716;2023-02-08T01:39:10;-2.50;99.90
35240;DHT22;21376;50.954;4.716;2023-02-08T01:41:42;-2.40;99.90
35240;DHT22;21376;50.954;4.716;2023-02-08T01:47:09;-2.80;99.90
35240;DHT22;21376;50.954;4.716;2023-02-08T01:49:36;-2.80;99.90
35240;DHT22;21376;50.954;4.716;2023-02-08T01:52:15;-2.60;99.90
35240;DHT22;21376;50.954;4.716;2023-02-08T01:54:47;-3.00;99.90
35240;DHT22;21376;50.954;4.716;2023-02-08T01:57:14;-2.80;99.90
35240;DHT22;21376;50.954;4.716;2023-02-08T02:06:25;-3.00;99.90
35240;DHT22;21376;50.954;4.716;2023-02-08T02:11:57;-2.80;99.90
35240;DHT22;21376;50.954;4.716;2023-02-08T02:14:25;-2.80;99.90
35240;DHT22;21376;50.954;4.716;2023-02-08T02:16:53;-2.90;99.90
35240;DHT22;21376;50.954;4.716;2023-02-08T02:25:36;-3.30;99.90
35240;DHT22;21376;50.954;4.716;2023-02-08T02:28:39;-3.10;99.90
35240;DHT22;21376;50.954;4.716;2023-02-08T02:31:41;-3.10;99.90
35240;DHT22;21376;50.954;4.716;2023-02-08T02:34:49;-3.20;99.90
35240;DHT22;21376;50.954;4.716;2023-02-08T02:44:51;-3.30;99.90
35240;DHT22;21376;50.954;4.716;2023-02-08T02:47:09;-3.30;99.90
35240;DHT22;21376;50.954;4.716;2023-02-08T02:49:55;-3.20;99.90
35240;DHT22;21376;50.954;4.716;2023-02-08T02:53:07;-3.20;99.90
35240;DHT22;21376;50.954;4.716;2023-02-08T02:55:35;-3.30;99.90
35240;DHT22;21376;50.954;4.716;2023-02-08T02:58:05;-3.10;99.90
35240;DHT22;21376;50.954;4.716;2023-02-08T03:00:35;-3.20;99.90
35240;DHT22;21376;50.954;4.716;2023-02-08T03:03:21;-3.30;99.90
35240;DHT22;21376;50.954;4.716;2023-02-08T03:05:49;-3.30;99.90
35240;DHT22;21376;50.954;4.716;2023-02-08T03:17:50;-3.30;99.90
35240;DHT22;21376;50.954;4.716;2023-02-08T03:38:03;-3.00;99.90
35240;DHT22;21376;50.954;4.716;2023-02-08T03:40:49;-3.00;99.90
35240;DHT22;21376;50.954;4.716;2023-02-08T03:43:26;-3.00;99.90
35240;DHT22;21376;50.954;4.716;2023-02-08T03:46:20;-3.20;99.90
35240;DHT22;21376;50.954;4.716;2023-02-08T03:49:00;-3.40;99.90
35240;DHT22;21376;50.954;4.716;2023-02-08T03:52:06;-3.30;99.90
35240;DHT22;21376;50.954;4.716;2023-02-08T03:55:04;-3.40;99.90
35240;DHT22;21376;50.954;4.716;2023-02-08T04:00:58;-3.60;99.90
35240;DHT22;21376;50.954;4.716;2023-02-08T04:03:50;-3.90;99.90
35240;DHT22;21376;50.954;4.716;2023-02-08T04:06:27;-4.00;99.90
35240;DHT22;21376;50.954;4.716;2023-02-08T04:11:54;-3.90;99.90
35240;DHT22;21376;50.954;4.716;2023-02-08T04:14:23;-3.80;99.90
35240;DHT22;21376;50.954;4.716;2023-02-08T04:16:52;-3.70;99.90
35240;DHT22;21376;50.954;4.716;2023-02-08T04:27:19;-3.60;99.90
35240;DHT22;21376;50.954;4.716;2023-02-08T04:29:48;-3.50;99.90
35240;DHT22;21376;50.954;4.716;2023-02-08T04:32:17;-3.40;99.90
35240;DHT22;21376;50.954;4.716;2023-02-08T04:34:50;-3.40;99.90
35240;DHT22;21376;50.954;4.716;2023-02-08T04:37:21;-3.50;99.90
35240;DHT22;21376;50.954;4.716;2023-02-08T04:39:50;-3.70;99.90
35240;DHT22;21376;50.954;4.716;2023-02-08T04:42:19;-3.70;99.90
35240;DHT22;21376;50.954;4.716;2023-02-08T04:44:48;-3.70;99.90
35240;DHT22;21376;50.954;4.716;2023-02-08T04:47:28;-3.70;99.90
35240;DHT22;21376;50.954;4.716;2023-02-08T04:49:54;-3.60;99.90
35240;DHT22;21376;50.954;4.716;2023-02-08T04:52:23;-3.80;99.90
35240;DHT22;21376;50.954;4.716;2023-02-08T04:54:52;-3.60;99.90
35240;DHT22;21376;50.954;4.716;2023-02-08T04:57:18;-3.70;99.90
35240;DHT22;21376;50.954;4.716;2023-02-08T04:59:57;-3.40;99.90
35240;DHT22;21376;50.954;4.716;2023-02-08T05:02:37;-3.40;99.90
35240;DHT22;21376;50.954;4.716;2023-02-08T05:08:15;-3.60;99.90
35240;DHT22;21376;50.954;4.716;2023-02-08T05:10:44;-3.50;99.90
35240;DHT22;21376;50.954;4.716;2023-02-08T05:13:12;-3.70;99.90
35240;DHT22;21376;50.954;4.716;2023-02-08T05:15:38;-3.70;99.90
35240;DHT22;21376;50.954;4.716;2023-02-08T05:21:25;-3.80;99.90
35240;DHT22;21376;50.954;4.716;2023-02-08T05:23:54;-3.80;99.90
35240;DHT22;21376;50.954;4.716;2023-02-08T05:26:20;-3.70;99.90
35240;DHT22;21376;50.954;4.716;2023-02-08T05:28:51;-3.40;99.90
35240;DHT22;21376;50.954;4.716;2023-02-08T05:31:23;-3.30;99.90
35240;DHT22;21376;50.954;4.716;2023-02-08T05:33:52;-3.30;99.90
35240;DHT22;21376;50.954;4.716;2023-02-08T05:36:18;-3.50;99.90
35240;DHT22;21376;50.954;4.716;2023-02-08T05:38:48;-3.40;99.90
35240;DHT22;21376;50.954;4.716;2023-02-08T05:41:14;-3.30;99.90
35240;DHT22;21376;50.954;4.716;2023-02-08T05:43:43;-3.50;99.90
35240;DHT22;21376;50.954;4.716;2023-02-08T05:46:13;-3.30;99.90
35240;DHT22;21376;50.954;4.716;2023-02-08T05:48:45;-3.40;99.90
35240;DHT22;21376;50.954;4.716;2023-02-08T05:51:14;-3.40;99.90
35240;DHT22;21376;50.954;4.716;2023-02-08T05:53:43;-3.80;99.90
35240;DHT22;21376;50.954;4.716;2023-02-08T05:56:11;-3.80;99.90
35240;DHT22;21376;50.954;4.716;2023-02-08T05:58:40;-3.80;99.90
35240;DHT22;21376;50.954;4.716;2023-02-08T06:01:12;-3.60;99.90
35240;DHT22;21376;50.954;4.716;2023-02-08T06:03:41;-3.90;99.90
35240;DHT22;21376;50.954;4.716;2023-02-08T06:06:07;-4.00;99.90
35240;DHT22;21376;50.954;4.716;2023-02-08T06:50:17;-3.90;99.90
35240;DHT22;21376;50.954;4.716;2023-02-08T06:53:06;-3.50;99.90
35240;DHT22;21376;50.954;4.716;2023-02-08T06:55:57;-3.50;99.90
35240;DHT22;21376;50.954;4.716;2023-02-08T06:58:26;-3.50;99.90
35240;DHT22;21376;50.954;4.716;2023-02-08T07:00:55;-3.60;99.90
35240;DHT22;21376;50.954;4.716;2023-02-08T07:03:22;-3.40;99.90
35240;DHT22;21376;50.954;4.716;2023-02-08T07:05:51;-3.70;99.90
35240;DHT22;21376;50.954;4.716;2023-02-08T07:08:48;-3.70;99.90
35240;DHT22;21376;50.954;4.716;2023-02-08T07:11:19;-3.70;99.90
35240;DHT22;21376;50.954;4.716;2023-02-08T07:13:48;-3.70;99.90
35240;DHT22;21376;50.954;4.716;2023-02-08T07:16:49;-3.50;99.90
35240;DHT22;21376;50.954;4.716;2023-02-08T07:19:16;-3.70;99.90
35240;DHT22;21376;50.954;4.716;2023-02-08T07:21:44;-3.70;99.90
35240;DHT22;21376;50.954;4.716;2023-02-08T07:27:52;-3.50;99.90
35240;DHT22;21376;50.954;4.716;2023-02-08T07:30:20;-3.60;99.90
35240;DHT22;21376;50.954;4.716;2023-02-08T07:33:19;-3.60;99.90
35240;DHT22;21376;50.954;4.716;2023-02-08T07:35:52;-3.60;99.90
35240;DHT22;21376;50.954;4.716;2023-02-08T07:38:20;-3.70;99.90
35240;DHT22;21376;50.954;4.716;2023-02-08T07:40:49;-3.60;99.90
35240;DHT22;21376;50.954;4.716;2023-02-08T07:43:34;-3.60;99.90
35240;DHT22;21376;50.954;4.716;2023-02-08T08:04:17;-3.20;99.90
35240;DHT22;21376;50.954;4.716;2023-02-08T08:06:47;-3.00;99.90
35240;DHT22;21376;50.954;4.716;2023-02-08T08:09:20;-2.90;99.90
35240;DHT22;21376;50.954;4.716;2023-02-08T08:11:49;-2.00;99.90
35240;DHT22;21376;50.954;4.716;2023-02-08T08:14:17;-1.30;99.90
35240;DHT22;21376;50.954;4.716;2023-02-08T08:16:46;-0.20;99.90
35240;DHT22;21376;50.954;4.716;2023-02-08T08:19:15;2.30;99.90
35240;DHT22;21376;50.954;4.716;2023-02-08T08:21:44;4.80;99.90
35240;DHT22;21376;50.954;4.716;2023-02-08T08:24:10;6.20;99.90
35240;DHT22;21376;50.954;4.716;2023-02-08T08:26:36;4.20;99.90
35240;DHT22;21376;50.954;4.716;2023-02-08T08:29:01;4.10;99.90
35240;DHT22;21376;50.954;4.716;2023-02-08T08:31:30;5.60;99.90
35240;DHT22;21376;50.954;4.716;2023-02-08T08:34:06;5.80;99.90
35240;DHT22;21376;50.954;4.716;2023-02-08T08:36:36;4.50;99.90
35240;DHT22;21376;50.954;4.716;2023-02-08T08:39:02;4.10;99.90
35240;DHT22;21376;50.954;4.716;2023-02-08T08:41:31;5.40;99.90
35240;DHT22;21376;50.954;4.716;2023-02-08T08:44:00;7.80;99.90
35240;DHT22;21376;50.954;4.716;2023-02-08T08:46:27;10.50;99.90
35240;DHT22;21376;50.954;4.716;2023-02-08T08:48:53;12.50;99.90
35240;DHT22;21376;50.954;4.716;2023-02-08T08:51:22;14.30;99.90
35240;DHT22;21376;50.954;4.716;2023-02-08T08:53:51;15.70;97.00
35240;DHT22;21376;50.954;4.716;2023-02-08T09:14:52;16.40;83.60
35240;DHT22;21376;50.954;4.716;2023-02-08T09:17:28;17.30;78.50
35240;DHT22;21376;50.954;4.716;2023-02-08T09:19:55;17.50;77.90
35240;DHT22;21376;50.954;4.716;2023-02-08T09:22:24;17.70;74.40
35240;DHT22;21376;50.954;4.716;2023-02-08T09:24:53;18.50;74.10
35240;DHT22;21376;50.954;4.716;2023-02-08T09:27:22;18.00;74.90
35240;DHT22;21376;50.954;4.716;2023-02-08T09:29:48;18.10;75.10
35240;DHT22;21376;50.954;4.716;2023-02-08T09:35:48;17.60;73.20
35240;DHT22;21376;50.954;4.716;2023-02-08T09:38:30;17.30;74.50
35240;DHT22;21376;50.954;4.716;2023-02-08T09:47:07;19.30;71.50
35240;DHT22;21376;50.954;4.716;2023-02-08T09:55:44;19.30;69.00
35240;DHT22;21376;50.954;4.716;2023-02-08T10:01:15;20.10;67.30
35240;DHT22;21376;50.954;4.716;2023-02-08T10:03:46;20.20;63.70
35240;DHT22;21376;50.954;4.716;2023-02-08T10:06:15;20.40;61.10
35240;DHT22;21376;50.954;4.716;2023-02-08T10:08:48;20.90;60.80
35240;DHT22;21376;50.954;4.716;2023-02-08T10:11:36;20.00;63.00
35240;DHT22;21376;50.954;4.716;2023-02-08T10:27:46;16.10;66.90
35240;DHT22;21376;50.954;4.716;2023-02-08T10:36:19;14.50;65.80
35240;DHT22;21376;50.954;4.716;2023-02-08T10:38:53;13.30;69.80
35240;DHT22;21376;50.954;4.716;2023-02-08T10:41:36;13.70;70.70
35240;DHT22;21376;50.954;4.716;2023-02-08T10:47:41;13.60;66.10
35240;DHT22;21376;50.954;4.716;2023-02-08T10:50:17;14.20;66.10
35240;DHT22;21376;50.954;4.716;2023-02-08T10:52:48;13.50;64.20
35240;DHT22;21376;50.954;4.716;2023-02-08T10:55:20;13.20;66.10
35240;DHT22;21376;50.954;4.716;2023-02-08T10:57:49;13.50;65.60
35240;DHT22;21376;50.954;4.716;2023-02-08T11:00:39;14.60;61.90
35240;DHT22;21376;50.954;4.716;2023-02-08T11:13:17;16.40;56.30
35240;DHT22;21376;50.954;4.716;2023-02-08T11:16:06;15.80;54.90
35240;DHT22;21376;50.954;4.716;2023-02-08T11:47:58;18.80;48.90
35240;DHT22;21376;50.954;4.716;2023-02-08T11:50:33;19.10;49.00
35240;DHT22;21376;50.954;4.716;2023-02-08T11:53:26;18.80;48.00
35240;DHT22;21376;50.954;4.716;2023-02-08T12:01:42;18.30;48.10
35240;DHT22;21376;50.954;4.716;2023-02-08T12:04:22;19.10;46.00
35240;DHT22;21376;50.954;4.716;2023-02-08T12:36:21;18.00;44.60
35240;DHT22;21376;50.954;4.716;2023-02-08T12:55:25;16.80;44.00
35240;DHT22;21376;50.954;4.716;2023-02-08T12:58:17;15.00;45.80
35240;DHT22;21376;50.954;4.716;2023-02-08T13:00:49;15.20;48.10
35240;DHT22;21376;50.954;4.716;2023-02-08T13:06:06;14.80;50.30
35240;DHT22;21376;50.954;4.716;2023-02-08T13:09:02;15.30;46.90
35240;DHT22;21376;50.954;4.716;2023-02-08T13:12:13;15.30;45.60
35240;DHT22;21376;50.954;4.716;2023-02-08T13:15:19;15.80;47.60
35240;DHT22;21376;50.954;4.716;2023-02-08T13:18:01;15.90;45.60
35240;DHT22;21376;50.954;4.716;2023-02-08T13:23:39;14.90;45.80
35240;DHT22;21376;50.954;4.716;2023-02-08T13:26:38;14.90;46.10
35240;DHT22;21376;50.954;4.716;2023-02-08T13:29:16;14.90;46.30
35240;DHT22;21376;50.954;4.716;2023-02-08T13:35:25;13.70;48.60
35240;DHT22;21376;50.954;4.716;2023-02-08T13:37:57;13.50;49.00
35240;DHT22;21376;50.954;4.716;2023-02-08T13:40:36;13.70;49.50
35240;DHT22;21376;50.954;4.716;2023-02-08T13:43:19;13.30;49.70
35240;DHT22;21376;50.954;4.716;2023-02-08T13:45:51;13.10;50.10
35240;DHT22;21376;50.954;4.716;2023-02-08T13:48:19;13.20;49.80
35240;DHT22;21376;50.954;4.716;2023-02-08T13:50:49;13.30;49.50
35240;DHT22;21376;50.954;4.716;2023-02-08T13:56:09;13.40;49.60
35240;DHT22;21376;50.954;4.716;2023-02-08T14:07:03;11.30;51.70
35240;DHT22;21376;50.954;4.716;2023-02-08T14:12:28;10.00;54.00
35240;DHT22;21376;50.954;4.716;2023-02-08T14:17:49;9.60;54.20
35240;DHT22;21376;50.954;4.716;2023-02-08T14:22:53;9.10;56.80
35240;DHT22;21376;50.954;4.716;2023-02-08T14:25:25;9.10;56.60
35240;DHT22;21376;50.954;4.716;2023-02-08T14:27:57;9.30;58.10
35240;DHT22;21376;50.954;4.716;2023-02-08T14:30:25;9.50;56.40
35240;DHT22;21376;50.954;4.716;2023-02-08T14:33:12;9.60;56.60
35240;DHT22;21376;50.954;4.716;2023-02-08T14:35:56;9.50;56.50
35240;DHT22;21376;50.954;4.716;2023-02-08T14:45:52;9.30;57.80
35240;DHT22;21376;50.954;4.716;2023-02-08T14:48:28;8.90;59.10
35240;DHT22;21376;50.954;4.716;2023-02-08T14:51:26;8.90;58.90
35240;DHT22;21376;50.954;4.716;2023-02-08T14:54:09;9.10;59.10
35240;DHT22;21376;50.954;4.716;2023-02-08T14:57:06;9.20;58.40
35240;DHT22;21376;50.954;4.716;2023-02-08T14:59:47;9.20;56.80
35240;DHT22;21376;50.954;4.716;2023-02-08T15:05:19;9.30;56.70
35240;DHT22;21376;50.954;4.716;2023-02-08T15:07:52;9.10;57.00
35240;DHT22;21376;50.954;4.716;2023-02-08T15:10:20;8.90;56.90
35240;DHT22;21376;50.954;4.716;2023-02-08T15:12:50;8.90;56.60
35240;DHT22;21376;50.954;4.716;2023-02-08T15:15:36;9.00;56.60
35240;DHT22;21376;50.954;4.716;2023-02-08T15:21:22;8.80;57.80
35240;DHT22;21376;50.954;4.716;2023-02-08T15:24:03;8.80;58.30
35240;DHT22;21376;50.954;4.716;2023-02-08T15:26:53;8.90;58.10
35240;DHT22;21376;50.954;4.716;2023-02-08T15:29:40;9.00;57.90
35240;DHT22;21376;50.954;4.716;2023-02-08T15:38:48;9.00;57.80
35240;DHT22;21376;50.954;4.716;2023-02-08T15:41:32;8.80;58.00
35240;DHT22;21376;50.954;4.716;2023-02-08T15:46:44;8.60;59.60
35240;DHT22;21376;50.954;4.716;2023-02-08T15:49:16;8.60;59.70
35240;DHT22;21376;50.954;4.716;2023-02-08T15:51:45;8.50;60.00
35240;DHT22;21376;50.954;4.716;2023-02-08T15:54:18;8.50;60.30
35240;DHT22;21376;50.954;4.716;2023-02-08T15:57:07;8.60;61.30
35240;DHT22;21376;50.954;4.716;2023-02-08T15:59:38;8.60;60.60
35240;DHT22;21376;50.954;4.716;2023-02-08T16:02:25;8.80;60.90
35240;DHT22;21376;50.954;4.716;2023-02-08T16:12:42;8.50;62.30
35240;DHT22;21376;50.954;4.716;2023-02-08T16:18:31;8.40;62.40
35240;DHT22;21376;50.954;4.716;2023-02-08T16:26:40;8.00;62.20
35240;DHT22;21376;50.954;4.716;2023-02-08T16:29:16;8.00;61.60
35240;DHT22;21376;50.954;4.716;2023-02-08T16:31:48;7.90;61.80
35240;DHT22;21376;50.954;4.716;2023-02-08T16:34:23;7.60;62.20
35240;DHT22;21376;50.954;4.716;2023-02-08T16:36:51;7.50;62.20
35240;DHT22;21376;50.954;4.716;2023-02-08T16:39:25;7.50;63.90
35240;DHT22;21376;50.954;4.716;2023-02-08T16:42:04;7.20;64.40
35240;DHT22;21376;50.954;4.716;2023-02-08T16:44:35;7.10;65.00
35240;DHT22;21376;50.954;4.716;2023-02-08T16:47:22;7.10;65.10
35240;DHT22;21376;50.954;4.716;2023-02-08T16:49:53;7.20;67.80
35240;DHT22;21376;50.954;4.716;2023-02-08T16:52:22;7.00;67.50
35240;DHT22;21376;50.954;4.716;2023-02-08T16:54:51;6.90;69.90
35240;DHT22;21376;50.954;4.716;2023-02-08T16:57:20;6.60;70.30
35240;DHT22;21376;50.954;4.716;2023-02-08T16:59:49;6.50;71.10
35240;DHT22;21376;50.954;4.716;2023-02-08T17:02:18;6.20;72.50
35240;DHT22;21376;50.954;4.716;2023-02-08T17:05:02;5.90;74.40
35240;DHT22;21376;50.954;4.716;2023-02-08T17:07:31;5.90;75.60
35240;DHT22;21376;50.954;4.716;2023-02-08T17:13:45;5.50;76.70
35240;DHT22;21376;50.954;4.716;2023-02-08T17:16:36;5.30;77.50
35240;DHT22;21376;50.954;4.716;2023-02-08T17:19:15;5.40;79.70
35240;DHT22;21376;50.954;4.716;2023-02-08T17:21:52;5.30;80.60
35240;DHT22;21376;50.954;4.716;2023-02-08T17:24:32;5.30;81.80
35240;DHT22;21376;50.954;4.716;2023-02-08T17:27:01;5.00;83.90
35240;DHT22;21376;50.954;4.716;2023-02-08T17:29:44;5.10;84.80
35240;DHT22;21376;50.954;4.716;2023-02-08T17:32:44;4.80;86.40
35240;DHT22;21376;50.954;4.716;2023-02-08T17:35:33;4.70;89.30
35240;DHT22;21376;50.954;4.716;2023-02-08T17:38:03;4.60;90.10
35240;DHT22;21376;50.954;4.716;2023-02-08T17:40:34;4.40;90.20
35240;DHT22;21376;50.954;4.716;2023-02-08T17:43:00;4.30;90.80
35240;DHT22;21376;50.954;4.716;2023-02-08T17:45:44;4.10;91.40
35240;DHT22;21376;50.954;4.716;2023-02-08T17:48:16;4.00;91.80
35240;DHT22;21376;50.954;4.716;2023-02-08T17:50:45;3.90;92.50
35240;DHT22;21376;50.954;4.716;2023-02-08T17:53:18;4.00;93.30
35240;DHT22;21376;50.954;4.716;2023-02-08T17:55:47;3.70;94.80
35240;DHT22;21376;50.954;4.716;2023-02-08T17:58:16;3.90;94.40
35240;DHT22;21376;50.954;4.716;2023-02-08T18:00:49;3.70;95.00
35240;DHT22;21376;50.954;4.716;2023-02-08T18:03:18;3.50;97.10
35240;DHT22;21376;50.954;4.716;2023-02-08T18:05:46;3.40;97.40
35240;DHT22;21376;50.954;4.716;2023-02-08T18:08:12;3.20;97.80
35240;DHT22;21376;50.954;4.716;2023-02-08T18:10:39;3.20;98.50
35240;DHT22;21376;50.954;4.716;2023-02-08T18:13:06;3.30;95.70
35240;DHT22;21376;50.954;4.716;2023-02-08T18:15:33;3.80;94.20
35240;DHT22;21376;50.954;4.716;2023-02-08T18:18:05;3.80;93.60
35240;DHT22;21376;50.954;4.716;2023-02-08T18:20:34;3.50;94.60
35240;DHT22;21376;50.954;4.716;2023-02-08T18:23:06;3.20;97.60
35240;DHT22;21376;50.954;4.716;2023-02-08T18:25:34;3.10;98.50
35240;DHT22;21376;50.954;4.716;2023-02-08T18:27:59;3.00;98.10
35240;DHT22;21376;50.954;4.716;2023-02-08T18:30:28;3.00;99.80
35240;DHT22;21376;50.954;4.716;2023-02-08T18:33:10;2.60;99.90
35240;DHT22;21376;50.954;4.716;2023-02-08T18:35:56;2.50;99.90
35240;DHT22;21376;50.954;4.716;2023-02-08T18:38:25;2.40;99.90
35240;DHT22;21376;50.954;4.716;2023-02-08T18:40:54;2.30;99.90
35240;DHT22;21376;50.954;4.716;2023-02-08T18:43:23;2.40;99.90
35240;DHT22;21376;50.954;4.716;2023-02-08T18:46:03;2.20;99.90
35240;DHT22;21376;50.954;4.716;2023-02-08T18:48:32;2.40;99.90
35240;DHT22;21376;50.954;4.716;2023-02-08T18:51:00;2.30;99.90
35240;DHT22;21376;50.954;4.716;2023-02-08T18:53:32;2.30;99.90
35240;DHT22;21376;50.954;4.716;2023-02-08T18:56:03;2.10;99.90
35240;DHT22;21376;50.954;4.716;2023-02-08T18:58:31;1.90;99.90
35240;DHT22;21376;50.954;4.716;2023-02-08T19:01:11;1.80;99.90
35240;DHT22;21376;50.954;4.716;2023-02-08T19:03:38;1.80;99.90
35240;DHT22;21376;50.954;4.716;2023-02-08T19:06:10;2.00;99.90
35240;DHT22;21376;50.954;4.716;2023-02-08T19:08:44;2.10;99.90
35240;DHT22;21376;50.954;4.716;2023-02-08T19:11:30;2.10;99.90
35240;DHT22;21376;50.954;4.716;2023-02-08T19:13:57;1.90;99.90
35240;DHT22;21376;50.954;4.716;2023-02-08T19:16:30;1.90;99.90
35240;DHT22;21376;50.954;4.716;2023-02-08T19:19:21;1.80;99.90
35240;DHT22;21376;50.954;4.716;2023-02-08T19:21:50;1.70;99.90
35240;DHT22;21376;50.954;4.716;2023-02-08T19:24:27;1.60;99.90
35240;DHT22;21376;50.954;4.716;2023-02-08T19:26:53;1.50;99.90
35240;DHT22;21376;50.954;4.716;2023-02-08T19:29:22;1.60;99.90
35240;DHT22;21376;50.954;4.716;2023-02-08T19:35:13;1.40;99.90
35240;DHT22;21376;50.954;4.716;2023-02-08T19:37:42;1.30;99.90
35240;DHT22;21376;50.954;4.716;2023-02-08T19:40:23;1.20;99.90
35240;DHT22;21376;50.954;4.716;2023-02-08T19:45:17;0.90;99.90
35240;DHT22;21376;50.954;4.716;2023-02-08T19:47:44;0.90;99.90
35240;DHT22;21376;50.954;4.716;2023-02-08T19:50:13;1.00;99.90
35240;DHT22;21376;50.954;4.716;2023-02-08T19:56:03;0.60;99.90
35240;DHT22;21376;50.954;4.716;2023-02-08T19:58:33;0.80;99.90
35240;DHT22;21376;50.954;4.716;2023-02-08T20:01:23;0.70;99.90
35240;DHT22;21376;50.954;4.716;2023-02-08T20:03:52;0.60;99.90
35240;DHT22;21376;50.954;4.716;2023-02-08T20:06:35;0.50;99.90
35240;DHT22;21376;50.954;4.716;2023-02-08T20:09:07;0.30;99.90
35240;DHT22;21376;50.954;4.716;2023-02-08T20:11:37;0.30;99.90
35240;DHT22;21376;50.954;4.716;2023-02-08T20:14:06;0.20;99.90
35240;DHT22;21376;50.954;4.716;2023-02-08T20:16:35;0.30;99.90
35240;DHT22;21376;50.954;4.716;2023-02-08T20:19:04;0.10;99.90
35240;DHT22;21376;50.954;4.716;2023-02-08T20:21:33;0.20;99.90
35240;DHT22;21376;50.954;4.716;2023-02-08T20:26:55;0.30;99.90
35240;DHT22;21376;50.954;4.716;2023-02-08T20:29:26;0.10;99.90
35240;DHT22;21376;50.954;4.716;2023-02-08T20:31:55;0.00;99.90
35240;DHT22;21376;50.954;4.716;2023-02-08T20:34:24;-0.10;99.90
35240;DHT22;21376;50.954;4.716;2023-02-08T20:36:52;-0.20;99.90
35240;DHT22;21376;50.954;4.716;2023-02-08T20:39:21;-0.10;99.90
35240;DHT22;21376;50.954;4.716;2023-02-08T20:41:50;-0.40;99.90
35240;DHT22;21376;50.954;4.716;2023-02-08T20:44:25;-0.20;99.90
35240;DHT22;21376;50.954;4.716;2023-02-08T20:50:10;-0.60;99.90
35240;DHT22;21376;50.954;4.716;2023-02-08T20:55:52;-0.20;99.90
35240;DHT22;21376;50.954;4.716;2023-02-08T20:58:19;-0.40;99.90
35240;DHT22;21376;50.954;4.716;2023-02-08T21:00:48;-0.50;99.90
35240;DHT22;21376;50.954;4.716;2023-02-08T21:03:17;-0.40;99.90
35240;DHT22;21376;50.954;4.716;2023-02-08T21:05:44;-0.40;99.90
35240;DHT22;21376;50.954;4.716;2023-02-08T21:08:10;-0.20;99.90
35240;DHT22;21376;50.954;4.716;2023-02-08T21:10:39;-0.40;99.90
35240;DHT22;21376;50.954;4.716;2023-02-08T21:13:04;-0.60;99.90
35240;DHT22;21376;50.954;4.716;2023-02-08T21:15:33;-0.80;99.90
35240;DHT22;21376;50.954;4.716;2023-02-08T21:18:02;-0.80;99.90
35240;DHT22;21376;50.954;4.716;2023-02-08T21:20:31;-0.70;99.90
35240;DHT22;21376;50.954;4.716;2023-02-08T21:23:07;-0.80;99.90
35240;DHT22;21376;50.954;4.716;2023-02-08T21:25:33;-0.90;99.90
35240;DHT22;21376;50.954;4.716;2023-02-08T21:28:15;-0.70;99.90
35240;DHT22;21376;50.954;4.716;2023-02-08T21:30:44;-0.80;99.90
35240;DHT22;21376;50.954;4.716;2023-02-08T21:33:12;-0.60;99.90
35240;DHT22;21376;50.954;4.716;2023-02-08T21:43:02;-1.00;99.90
35240;DHT22;21376;50.954;4.716;2023-02-08T21:45:28;-0.80;99.90
35240;DHT22;21376;50.954;4.716;2023-02-08T21:47:54;-0.90;99.90
35240;DHT22;21376;50.954;4.716;2023-02-08T21:50:24;-1.30;99.90
35240;DHT22;21376;50.954;4.716;2023-02-08T21:53:14;-1.00;99.90
35240;DHT22;21376;50.954;4.716;2023-02-08T21:59:11;-1.50;99.90
35240;DHT22;21376;50.954;4.716;2023-02-08T22:01:39;-1.60;99.90
35240;DHT22;21376;50.954;4.716;2023-02-08T22:04:08;-1.50;99.90
35240;DHT22;21376;50.954;4.716;2023-02-08T22:06:37;-1.20;99.90
35240;DHT22;21376;50.954;4.716;2023-02-08T22:09:06;-1.60;99.90
35240;DHT22;21376;50.954;4.716;2023-02-08T22:11:45;-1.70;99.90
35240;DHT22;21376;50.954;4.716;2023-02-08T22:14:15;-1.70;99.90
35240;DHT22;21376;50.954;4.716;2023-02-08T22:16:44;-1.40;99.90
35240;DHT22;21376;50.954;4.716;2023-02-08T22:22:17;-1.30;99.90
35240;DHT22;21376;50.954;4.716;2023-02-08T22:28:34;-1.40;99.90
35240;DHT22;21376;50.954;4.716;2023-02-08T22:31:03;-1.70;99.90
35240;DHT22;21376;50.954;4.716;2023-02-08T22:33:35;-1.80;99.90
35240;DHT22;21376;50.954;4.716;2023-02-08T22:36:08;-1.70;99.90
35240;DHT22;21376;50.954;4.716;2023-02-08T22:38:36;-1.80;99.90
35240;DHT22;21376;50.954;4.716;2023-02-08T22:41:08;-1.70;99.90
35240;DHT22;21376;50.954;4.716;2023-02-08T22:43:37;-1.70;99.90
35240;DHT22;21376;50.954;4.716;2023-02-08T22:48:58;-1.50;99.90
35240;DHT22;21376;50.954;4.716;2023-02-08T22:51:43;-1.40;99.90
35240;DHT22;21376;50.954;4.716;2023-02-08T22:54:10;-1.50;99.90
35240;DHT22;21376;50.954;4.716;2023-02-08T22:56:39;-1.60;99.90
35240;DHT22;21376;50.954;4.716;2023-02-08T22:59:07;-1.70;99.90
35240;DHT22;21376;50.954;4.716;2023-02-08T23:01:36;-1.50;99.90
35240;DHT22;21376;50.954;4.716;2023-02-08T23:04:14;-1.90;99.90
35240;DHT22;21376;50.954;4.716;2023-02-08T23:07:16;-1.80;99.90
35240;DHT22;21376;50.954;4.716;2023-02-08T23:09:46;-2.10;99.90
35240;DHT22;21376;50.954;4.716;2023-02-08T23:12:14;-2.10;99.90
35240;DHT22;21376;50.954;4.716;2023-02-08T23:14:46;-2.20;99.90
35240;DHT22;21376;50.954;4.716;2023-02-08T23:17:17;-2.30;99.90
35240;DHT22;21376;50.954;4.716;2023-02-08T23:19:46;-2.20;99.90
35240;DHT22;21376;50.954;4.716;2023-02-08T23:22:37;-2.20;99.90
35240;DHT22;21376;50.954;4.716;2023-02-08T23:25:10;-2.30;99.90
35240;DHT22;21376;50.954;4.716;2023-02-08T23:31:06;-2.20;99.90
35240;DHT22;21376;50.954;4.716;2023-02-08T23:33:35;-2.10;99.90
35240;DHT22;21376;50.954;4.716;2023-02-08T23:36:19;-2.20;99.90